Time;durP1;ratioP1;P1;durP2;ratioP2;P2;SDS_P1;SDS_P2;PMS_P1;PMS_P2;Temp;Humidity;BMP_temperature;BMP_pressure;BME280_temperature;BME280_humidity;BME280_pressure;Samples;Min_cycle;Max_cycle;Signal;HPM_P1;HPM_P2
2023/06/01 00:00:02;;;;;;;19.40;12.80;;;12.40;99.90;;;;;;4882159;29;38065;-83
2023/06/01 00:02:28;;;;;;;22.63;13.55;;;12.40;99.90;;;;;;4874781;29;36826;-81
2023/06/01 00:04:54;;;;;;;19.75;13.32;;;12.30;99.90;;;;;;4874646;29;39668;-81
2023/06/01 00:07:20;;;;;;;20.40;13.32;;;12.30;99.90;;;;;;4873721;29;36243;-81
2023/06/01 00:09:46;;;;;;;24.80;13.73;;;12.40;99.90;;;;;;4871761;29;38551;-82
2023/06/01 00:12:13;;;;;;;18.15;12.52;;;12.40;99.90;;;;;;4874564;29;36479;-81
2023/06/01 00:14:40;;;;;;;22.75;13.00;;;12.40;99.90;;;;;;4879507;29;40042;-82
2023/06/01 00:17:07;;;;;;;21.40;13.70;;;12.40;99.90;;;;;;4878405;29;37254;-82
2023/06/01 00:19:34;;;;;;;14.77;11.82;;;12.40;99.90;;;;;;4878241;29;38613;-82
2023/06/01 00:22:00;;;;;;;20.95;12.55;;;12.40;99.90;;;;;;4875662;29;36432;-82
2023/06/01 00:24:26;;;;;;;19.77;12.95;;;12.40;99.90;;;;;;4873704;29;47221;-81
2023/06/01 00:26:53;;;;;;;17.95;12.23;;;12.40;99.90;;;;;;4865665;29;38116;-81
2023/06/01 00:29:19;;;;;;;19.42;12.20;;;12.40;99.90;;;;;;4869575;29;39505;-82
2023/06/01 00:31:49;;;;;;;25.73;14.18;;;12.40;99.90;;;;;;4877655;29;37427;-82
2023/06/01 00:34:15;;;;;;;20.52;13.40;;;12.40;99.90;;;;;;4874763;29;38444;-81
2023/06/01 00:36:41;;;;;;;19.45;13.15;;;12.30;99.90;;;;;;4854206;29;37119;-81
2023/06/01 00:39:08;;;;;;;23.83;13.45;;;12.30;99.90;;;;;;4864736;29;37700;-81
2023/06/01 00:41:34;;;;;;;21.83;13.20;;;12.30;99.90;;;;;;4866475;29;37189;-80
2023/06/01 00:44:00;;;;;;;22.90;14.05;;;12.30;99.90;;;;;;4875401;29;37548;-82
2023/06/01 00:46:29;;;;;;;23.48;13.65;;;12.20;99.90;;;;;;4877051;29;38048;-82
2023/06/01 00:48:56;;;;;;;22.50;14.32;;;12.20;99.90;;;;;;4869190;29;37560;-82
2023/06/01 00:51:22;;;;;;;19.67;12.48;;;12.20;99.90;;;;;;4864215;29;35808;-81
2023/06/01 00:53:49;;;;;;;23.52;13.48;;;12.30;99.90;;;;;;4858924;29;37157;-82
2023/06/01 00:56:16;;;;;;;21.00;13.18;;;12.30;99.90;;;;;;4874368;29;37912;-81
2023/06/01 00:58:43;;;;;;;19.45;12.90;;;12.40;99.90;;;;;;4869767;29;39087;-82
2023/06/01 01:03:49;;;;;;;18.98;11.15;;;12.20;99.90;;;;;;4895410;23;20056;-77
2023/06/01 01:06:25;;;;;;;15.45;9.93;;;12.20;99.90;;;;;;4872696;29;36461;-77
2023/06/01 01:09:14;;;;;;;16.50;9.88;;;12.10;99.90;;;;;;4889600;29;38243;-78
2023/06/01 01:11:56;;;;;;;16.80;8.85;;;12.20;99.90;;;;;;4878501;29;47290;-79
2023/06/01 01:14:40;;;;;;;13.98;8.60;;;12.10;99.90;;;;;;4876091;29;37677;-80
2023/06/01 01:17:10;;;;;;;15.05;9.02;;;12.10;99.90;;;;;;4894620;29;38117;-79
2023/06/01 01:20:08;;;;;;;13.70;8.90;;;12.10;99.90;;;;;;4890367;29;36994;-78
2023/06/01 01:22:53;;;;;;;15.52;8.65;;;12.00;99.90;;;;;;4883961;29;48939;-77
2023/06/01 01:25:45;;;;;;;16.20;9.15;;;12.00;99.90;;;;;;4873916;29;40929;-79
2023/06/01 01:28:42;;;;;;;11.88;8.20;;;12.10;99.90;;;;;;4894891;29;38582;-81
2023/06/01 01:31:15;;;;;;;11.52;8.00;;;12.00;99.90;;;;;;4889342;29;37024;-79
2023/06/01 01:33:43;;;;;;;23.80;8.98;;;11.90;99.90;;;;;;4870421;29;37218;-78
2023/06/01 01:36:10;;;;;;;14.93;8.38;;;12.00;99.90;;;;;;4873044;29;38507;-79
2023/06/01 01:38:37;;;;;;;17.75;9.25;;;12.00;99.90;;;;;;4884923;29;38093;-78
2023/06/01 01:41:04;;;;;;;14.40;8.60;;;12.00;99.90;;;;;;4871832;29;37419;-79
2023/06/01 01:43:32;;;;;;;13.98;8.57;;;12.00;99.90;;;;;;4892786;29;35807;-79
2023/06/01 01:46:26;;;;;;;12.98;8.82;;;12.10;99.90;;;;;;4904407;29;39238;-78
2023/06/01 01:48:58;;;;;;;15.25;8.82;;;12.00;99.90;;;;;;4894920;29;49366;-79
2023/06/01 01:51:32;;;;;;;16.63;9.25;;;12.00;99.90;;;;;;4884224;29;37550;-80
2023/06/01 01:54:05;;;;;;;16.45;8.63;;;12.00;99.90;;;;;;4872418;29;36721;-79
2023/06/01 01:56:31;;;;;;;12.13;8.45;;;11.90;99.90;;;;;;4880300;29;46178;-78
2023/06/01 01:58:58;;;;;;;14.75;8.85;;;11.90;99.90;;;;;;4888006;29;38225;-80
2023/06/01 02:01:25;;;;;;;15.15;8.95;;;11.80;99.90;;;;;;4890926;29;37802;-81
2023/06/01 02:04:47;;;;;;;14.00;9.30;;;11.90;99.90;;;;;;4882335;29;36190;-81
2023/06/01 02:07:14;;;;;;;12.85;9.02;;;11.90;99.90;;;;;;4914113;29;49254;-80
2023/06/01 02:09:47;;;;;;;18.25;9.95;;;11.90;99.90;;;;;;4898264;29;37315;-80
2023/06/01 02:12:14;;;;;;;12.95;9.27;;;11.90;99.90;;;;;;4912618;29;36633;-79
2023/06/01 02:14:40;;;;;;;14.20;9.80;;;12.00;99.90;;;;;;4916008;29;38585;-81
2023/06/01 02:17:07;;;;;;;14.65;8.75;;;12.00;99.90;;;;;;4916392;29;39252;-80
2023/06/01 02:19:41;;;;;;;13.57;8.95;;;11.90;99.90;;;;;;4901572;29;37400;-80
2023/06/01 02:22:08;;;;;;;17.90;9.18;;;11.90;99.90;;;;;;4899646;29;38109;-80
2023/06/01 02:24:41;;;;;;;14.73;9.85;;;11.90;99.90;;;;;;4899693;29;36021;-80
2023/06/01 02:27:07;;;;;;;15.60;9.85;;;11.90;99.90;;;;;;4901462;29;37735;-80
2023/06/01 02:29:33;;;;;;;15.93;9.63;;;12.00;99.90;;;;;;4915284;29;38853;-79
2023/06/01 02:31:59;;;;;;;12.75;8.98;;;11.90;99.90;;;;;;4915678;29;36556;-79
2023/06/01 02:34:25;;;;;;;13.55;9.27;;;11.90;99.90;;;;;;4920647;29;36004;-78
2023/06/01 02:37:00;;;;;;;21.58;10.38;;;11.90;99.90;;;;;;4921191;28;40248;-80
2023/06/01 02:39:26;;;;;;;17.13;8.95;;;11.80;99.90;;;;;;4913177;29;37565;-78
2023/06/01 02:42:07;;;;;;;14.88;9.18;;;11.90;99.90;;;;;;4918106;29;36959;-82
2023/06/01 02:44:51;;;;;;;12.73;9.23;;;11.80;99.90;;;;;;4918720;29;47972;-81
2023/06/01 02:47:17;;;;;;;14.98;9.68;;;11.90;99.90;;;;;;4909619;29;37935;-79
2023/06/01 02:49:58;;;;;;;20.98;9.75;;;12.00;99.90;;;;;;4905820;29;38374;-80
2023/06/01 02:52:24;;;;;;;14.57;8.00;;;11.90;99.90;;;;;;4903151;29;36909;-79
2023/06/01 02:54:51;;;;;;;13.20;8.48;;;12.00;99.90;;;;;;4901181;29;36841;-79
2023/06/01 02:57:19;;;;;;;17.27;8.98;;;11.90;99.90;;;;;;4908468;29;37609;-80
2023/06/01 02:59:47;;;;;;;13.98;8.52;;;11.90;99.90;;;;;;4910965;29;37109;-80
2023/06/01 03:02:13;;;;;;;17.15;8.70;;;11.90;99.90;;;;;;4900898;29;38228;-77
2023/06/01 03:04:54;;;;;;;16.85;9.13;;;12.00;99.90;;;;;;4891957;29;37875;-79
2023/06/01 03:07:20;;;;;;;15.32;8.88;;;11.90;99.90;;;;;;4875072;29;37460;-80
2023/06/01 03:09:52;;;;;;;21.60;9.15;;;11.90;99.90;;;;;;4891010;29;37381;-80
2023/06/01 03:12:32;;;;;;;15.75;9.40;;;11.80;99.90;;;;;;4891535;29;38200;-80
2023/06/01 03:14:58;;;;;;;16.50;8.57;;;11.80;99.90;;;;;;4886873;29;37299;-79
2023/06/01 03:17:25;;;;;;;18.25;9.27;;;11.70;99.90;;;;;;4887241;29;37919;-80
2023/06/01 03:19:51;;;;;;;15.50;9.00;;;11.80;99.90;;;;;;4887367;29;37577;-80
2023/06/01 03:22:17;;;;;;;16.15;11.10;;;11.80;99.90;;;;;;4866086;29;37306;-80
2023/06/01 03:24:44;;;;;;;18.35;8.98;;;11.80;99.90;;;;;;4867836;29;36712;-81
2023/06/01 03:27:13;;;;;;;15.43;9.75;;;11.70;99.90;;;;;;4887371;29;37991;-79
2023/06/01 03:29:39;;;;;;;21.38;9.57;;;11.70;99.90;;;;;;4880882;29;37393;-79
2023/06/01 03:32:07;;;;;;;16.42;8.75;;;11.60;99.90;;;;;;4884121;29;37195;-79
2023/06/01 03:34:36;;;;;;;12.88;9.20;;;11.70;99.90;;;;;;4882236;29;36051;-80
2023/06/01 03:37:04;;;;;;;24.55;10.30;;;11.70;99.90;;;;;;4882724;29;38956;-79
2023/06/01 03:39:33;;;;;;;18.88;9.93;;;11.70;99.90;;;;;;4884986;29;47624;-80
2023/06/01 03:41:59;;;;;;;14.50;8.90;;;11.70;99.90;;;;;;4867242;29;37205;-79
2023/06/01 03:44:26;;;;;;;16.02;10.25;;;11.60;99.90;;;;;;4881154;29;37326;-79
2023/06/01 03:46:52;;;;;;;14.57;9.43;;;11.70;99.90;;;;;;4872657;29;38036;-78
2023/06/01 03:49:18;;;;;;;18.75;9.52;;;11.70;99.90;;;;;;4889427;29;37730;-78
2023/06/01 03:51:45;;;;;;;18.77;9.48;;;11.70;99.90;;;;;;4859476;29;37068;-77
2023/06/01 03:54:13;;;;;;;16.65;9.48;;;11.70;99.90;;;;;;4872799;29;37764;-80
2023/06/01 03:56:45;;;;;;;18.50;9.85;;;11.70;99.90;;;;;;4890827;29;37826;-81
2023/06/01 03:59:17;;;;;;;16.00;9.65;;;11.70;99.90;;;;;;4889881;29;39150;-80
2023/06/01 04:01:44;;;;;;;14.95;8.82;;;11.80;99.90;;;;;;4882139;29;37032;-79
2023/06/01 04:04:12;;;;;;;12.77;9.68;;;11.80;99.90;;;;;;4867438;29;37215;-80
2023/06/01 04:06:42;;;;;;;14.82;9.90;;;11.80;99.90;;;;;;4890695;29;38893;-79
2023/06/01 04:09:09;;;;;;;17.23;9.65;;;11.70;99.90;;;;;;4886175;29;37533;-79
2023/06/01 04:11:39;;;;;;;21.33;9.65;;;11.70;99.90;;;;;;4883537;29;37369;-80
2023/06/01 04:14:05;;;;;;;16.20;9.38;;;11.70;99.90;;;;;;4883815;29;35866;-79
2023/06/01 04:16:31;;;;;;;14.60;9.32;;;11.70;99.90;;;;;;4892612;29;37338;-77
2023/06/01 04:18:57;;;;;;;16.35;8.65;;;11.70;99.90;;;;;;4897655;29;38259;-80
2023/06/01 04:21:24;;;;;;;15.65;10.23;;;11.80;99.90;;;;;;4873016;29;37123;-79
2023/06/01 04:23:50;;;;;;;16.50;8.98;;;11.80;99.90;;;;;;4885990;29;36506;-78
2023/06/01 04:26:17;;;;;;;18.20;9.05;;;11.80;99.90;;;;;;4872694;29;37863;-79
2023/06/01 04:28:45;;;;;;;17.67;8.75;;;11.70;99.90;;;;;;4886056;29;37577;-79
2023/06/01 04:31:16;;;;;;;13.40;8.82;;;11.70;99.90;;;;;;4893295;29;38466;-80
2023/06/01 04:33:44;;;;;;;13.52;8.63;;;11.70;99.90;;;;;;4891770;29;36363;-79
2023/06/01 04:36:19;;;;;;;15.10;8.73;;;11.80;99.90;;;;;;4884916;29;37922;-79
2023/06/01 04:38:50;;;;;;;14.82;8.20;;;11.80;99.90;;;;;;4903758;29;37670;-79
2023/06/01 04:41:17;;;;;;;15.82;7.78;;;11.80;99.90;;;;;;4893650;29;36937;-79
2023/06/01 04:54:46;;;;;;;15.90;7.85;;;11.80;99.90;;;;;;5394062;23;20068;-80
2023/06/01 04:57:43;;;;;;;15.57;7.50;;;11.90;99.90;;;;;;4901569;29;39289;-81
2023/06/01 05:02:57;;;;;;;15.18;7.78;;;12.00;99.90;;;;;;5838070;23;20024;-79
2023/06/01 05:05:28;;;;;;;16.63;7.65;;;12.10;99.90;;;;;;4884389;29;38298;-79
2023/06/01 05:41:48;;;;;;;17.25;8.82;;;12.50;99.90;;;;;;5845764;23;20016;-83
2023/06/01 05:47:07;;;;;;;17.63;8.30;;;12.30;99.90;;;;;;5774343;23;20053;-79
2023/06/01 06:28:42;;;;;;;13.80;7.90;;;13.40;97.50;;;;;;5894062;23;21596;-81
2023/06/01 06:31:08;;;;;;;20.42;8.25;;;13.00;99.90;;;;;;4838824;29;37179;-80
2023/06/01 06:33:35;;;;;;;18.67;8.15;;;12.70;99.90;;;;;;5276164;23;38624;-78
2023/06/01 06:38:42;;;;;;;14.73;7.93;;;12.80;99.90;;;;;;5328544;23;21670;-80
2023/06/01 06:41:10;;;;;;;14.07;8.52;;;12.60;99.90;;;;;;4831559;29;20059;-80
2023/06/01 06:43:44;;;;;;;14.18;8.45;;;12.60;99.90;;;;;;4815419;29;37756;-81
2023/06/01 06:46:11;;;;;;;12.90;7.85;;;12.80;99.90;;;;;;4814761;29;36770;-80
2023/06/01 06:48:39;;;;;;;12.85;8.30;;;13.00;99.90;;;;;;4813396;29;38624;-79
2023/06/01 06:51:06;;;;;;;17.50;8.60;;;13.20;99.90;;;;;;4791510;29;36722;-80
2023/06/01 06:53:33;;;;;;;17.08;8.45;;;13.30;99.90;;;;;;4789384;29;37844;-80
2023/06/01 06:55:59;;;;;;;15.60;8.32;;;13.40;99.90;;;;;;4785949;29;37507;-79
2023/06/01 06:58:26;;;;;;;16.25;8.13;;;13.40;99.90;;;;;;4785905;29;38843;-81
2023/06/01 07:00:53;;;;;;;14.75;8.68;;;13.40;99.90;;;;;;4797931;29;38068;-80
2023/06/01 07:03:21;;;;;;;12.05;8.50;;;13.60;99.90;;;;;;4803236;29;38458;-80
2023/06/01 07:06:05;;;;;;;14.40;7.82;;;14.10;99.90;;;;;;4795281;29;38747;-79
2023/06/01 07:08:34;;;;;;;19.05;9.75;;;14.50;92.80;;;;;;4787846;29;39406;-78
2023/06/01 07:11:16;;;;;;;15.13;8.38;;;14.70;70.70;;;;;;4793081;29;38324;-79
2023/06/01 07:21:03;;;;;;;16.80;9.85;;;14.20;91.60;;;;;;4934389;23;20039;-81
2023/06/01 07:23:31;;;;;;;14.95;8.93;;;14.30;93.40;;;;;;4829026;29;47740;-80
2023/06/01 07:25:58;;;;;;;16.95;8.75;;;14.50;94.70;;;;;;5022225;24;37861;-79
2023/06/01 07:28:26;;;;;;;14.50;8.10;;;14.70;87.80;;;;;;4799158;29;35753;-79
2023/06/01 07:31:24;;;;;;;14.13;7.80;;;15.20;77.10;;;;;;4817553;29;39501;-80
2023/06/01 07:34:35;;;;;;;12.85;7.78;;;15.90;82.90;;;;;;4864128;24;48811;-80
2023/06/01 11:29:34;;;;;;;9.25;6.22;;;22.00;1.00;;;;;;5619984;23;20043;-83
2023/06/01 11:49:20;;;;;;;10.77;4.93;;;22.20;99.90;;;;;;5383104;24;20059;-82
2023/06/01 11:52:32;;;;;;;12.15;5.30;;;21.80;1.00;;;;;;4802229;29;37990;-80
2023/06/01 12:17:04;;;;;;;8.13;4.63;;;22.20;1.00;;;;;;5915344;23;20957;31
2023/06/01 12:19:55;;;;;;;11.15;5.22;;;21.70;1.00;;;;;;4806818;29;44559;-81
2023/06/01 12:22:34;;;;;;;8.93;4.38;;;21.50;99.90;;;;;;4816566;29;39011;-79
2023/06/01 12:40:40;;;;;;;13.18;3.72;;;21.60;1.00;;;;;;4600688;27;20062;-78
2023/06/01 12:43:31;;;;;;;7.93;3.65;;;21.50;1.00;;;;;;4843226;29;37887;-80
2023/06/01 12:46:08;;;;;;;8.13;3.25;;;21.40;1.00;;;;;;4857801;29;50076;-81
2023/06/01 12:51:22;;;;;;;8.05;3.42;;;21.40;1.00;;;;;;5767653;23;20175;-78
2023/06/01 12:53:48;;;;;;;16.17;4.32;;;21.20;1.00;;;;;;4804169;29;37415;-78
2023/06/01 12:56:17;;;;;;;10.25;4.60;;;21.20;1.00;;;;;;4825153;29;38077;-81
2023/06/01 12:59:14;;;;;;;11.80;3.70;;;21.40;1.00;;;;;;4796703;29;38690;-81
2023/06/01 13:06:52;;;;;;;5.97;3.05;;;21.00;1.00;;;;;;5176771;23;20047;-78
2023/06/01 13:09:19;;;;;;;6.70;3.00;;;21.20;99.90;;;;;;4821535;29;38391;-76
2023/06/01 13:12:05;;;;;;;5.50;3.13;;;21.30;1.00;;;;;;4822318;29;36704;-78
2023/06/01 13:14:49;;;;;;;7.68;3.80;;;21.30;1.00;;;;;;4835165;29;48919;-79
2023/06/01 13:17:16;;;;;;;8.07;3.20;;;21.00;1.00;;;;;;4828341;29;38310;-79
2023/06/01 13:22:21;;;;;;;9.80;2.83;;;20.80;1.00;;;;;;4881054;24;20054;-79
2023/06/01 13:24:48;;;;;;;8.10;3.88;;;20.70;1.00;;;;;;4837758;29;39277;-79
2023/06/01 13:33:14;;;;;;;5.38;2.78;;;20.70;99.90;;;;;;4816030;29;20040;-79
2023/06/01 13:35:41;;;;;;;7.22;3.60;;;20.80;1.00;;;;;;4790780;29;37913;-79
2023/06/01 13:48:40;;;;;;;6.78;2.10;;;21.10;1.00;;;;;;4836810;29;39875;-81
2023/06/01 14:05:55;;;;;;;4.45;2.72;;;20.30;1.00;;;;;;4860687;29;39914;-80
2023/06/01 14:08:58;;;;;;;7.90;2.83;;;20.10;1.00;;;;;;4860099;29;36757;-80
2023/06/01 14:11:58;;;;;;;5.72;2.72;;;19.90;1.00;;;;;;4854819;29;40255;-80
2023/06/01 14:19:37;;;;;;;6.47;3.58;;;20.20;99.90;;;;;;5462366;23;20055;-78
2023/06/01 14:22:08;;;;;;;5.10;3.20;;;20.00;1.00;;;;;;4819771;29;40279;-78
2023/06/01 14:25:04;;;;;;;8.63;3.88;;;20.10;99.90;;;;;;5579414;24;50014;-78
2023/06/01 14:28:18;;;;;;;6.25;3.70;;;19.90;1.00;;;;;;4800044;29;50268;-80
2023/06/01 14:50:08;;;;;;;3.50;1.90;;;19.10;99.90;;;;;;5051269;23;20046;-80
2023/06/01 14:53:07;;;;;;;3.50;1.55;;;19.50;99.90;;;;;;4940409;23;20066;-79
2023/06/01 14:55:35;;;;;;;4.38;1.40;;;19.60;1.00;;;;;;4825580;29;37009;-81
2023/06/01 15:00:48;;;;;;;5.20;1.85;;;19.40;99.90;;;;;;5146905;23;20050;-78
2023/06/01 15:03:46;;;;;;;2.80;1.77;;;19.00;1.00;;;;;;4803587;29;37737;-80
2023/06/01 15:06:21;;;;;;;5.60;2.40;;;18.50;99.90;;;;;;4789008;29;37557;-78
2023/06/01 15:08:48;;;;;;;5.05;2.53;;;18.10;1.00;;;;;;4811390;29;36752;-78
2023/06/01 15:11:14;;;;;;;7.07;3.63;;;17.80;1.00;;;;;;4814835;29;37796;-77
2023/06/01 15:13:41;;;;;;;8.07;3.40;;;17.60;99.90;;;;;;4804165;29;36548;-78
2023/06/01 15:16:08;;;;;;;6.28;3.10;;;17.80;99.90;;;;;;4819142;29;37325;-78
2023/06/01 15:18:34;;;;;;;6.22;3.30;;;17.70;99.90;;;;;;4833990;29;37882;-80
2023/06/01 15:21:01;;;;;;;6.20;2.97;;;17.90;1.00;;;;;;4817876;29;37340;-78
2023/06/01 15:23:30;;;;;;;6.03;3.13;;;17.80;99.90;;;;;;4982424;23;48322;-80
2023/06/01 15:25:56;;;;;;;6.63;3.30;;;17.40;1.00;;;;;;4817854;29;35756;-79
2023/06/01 15:33:34;;;;;;;6.75;3.33;;;17.00;1.00;;;;;;5305255;23;20093;-77
2023/06/01 15:36:02;;;;;;;8.07;3.38;;;17.20;1.00;;;;;;4822741;29;36618;-80
2023/06/01 15:39:37;;;;;;;12.88;3.42;;;17.10;99.90;;;;;;4846469;29;49761;-81
2023/06/01 15:42:10;;;;;;;8.52;3.17;;;16.90;99.90;;;;;;4824625;29;39443;-77
2023/06/01 15:44:43;;;;;;;5.13;2.25;;;16.70;1.00;;;;;;4842174;29;37496;-79
2023/06/01 15:47:23;;;;;;;6.75;2.38;;;16.70;99.90;;;;;;4809066;29;38988;-81
2023/06/01 15:49:56;;;;;;;4.75;2.38;;;16.50;1.00;;;;;;4810990;29;39679;-79
2023/06/01 15:52:36;;;;;;;3.45;1.83;;;16.60;1.00;;;;;;4766059;29;39754;-80
2023/06/01 15:55:19;;;;;;;4.05;2.10;;;16.40;1.00;;;;;;4839149;29;39135;-81
2023/06/01 15:57:55;;;;;;;5.78;1.95;;;16.60;1.00;;;;;;4818803;29;37617;-80
2023/06/01 16:00:23;;;;;;;3.80;1.92;;;16.60;1.00;;;;;;4781106;29;38969;-78
2023/06/01 16:02:49;;;;;;;3.22;2.28;;;16.50;99.90;;;;;;4790061;29;38385;-76
2023/06/01 16:05:15;;;;;;;9.40;2.80;;;16.30;1.00;;;;;;4813333;29;39489;-77
2023/06/01 16:07:45;;;;;;;6.45;3.58;;;16.30;1.00;;;;;;4812869;29;36962;-78
2023/06/01 16:10:13;;;;;;;6.68;3.50;;;16.40;1.00;;;;;;4780576;29;38355;-77
2023/06/01 16:12:39;;;;;;;6.45;2.80;;;16.60;99.90;;;;;;4813760;29;38140;-76
2023/06/01 16:15:06;;;;;;;5.38;2.78;;;16.80;99.90;;;;;;4802141;29;37983;-77
2023/06/01 16:17:33;;;;;;;6.18;3.70;;;16.70;1.00;;;;;;4798030;29;36410;-77
2023/06/01 16:20:00;;;;;;;7.30;3.13;;;16.70;1.00;;;;;;4808329;29;37912;-79
2023/06/01 16:22:26;;;;;;;7.13;2.90;;;16.70;1.00;;;;;;4825189;29;37300;-77
2023/06/01 16:25:00;;;;;;;8.45;2.60;;;16.80;1.00;;;;;;4842361;29;37678;-78
2023/06/01 16:27:26;;;;;;;11.15;4.70;;;17.00;53.40;;;;;;4825378;29;36763;-81
2023/06/01 16:30:02;;;;;;;7.38;3.25;;;16.90;1.00;;;;;;4839518;29;38775;-81
2023/06/01 16:32:32;;;;;;;7.85;4.32;;;16.70;1.00;;;;;;4827121;29;38998;-79
2023/06/01 16:34:58;;;;;;;6.78;3.85;;;16.70;1.00;;;;;;4839939;29;39262;-79
2023/06/01 16:37:24;;;;;;;5.88;2.78;;;16.40;1.00;;;;;;4822973;29;37271;-78
2023/06/01 16:39:51;;;;;;;9.30;3.65;;;16.10;1.00;;;;;;4825997;29;39306;-79
2023/06/01 16:42:17;;;;;;;9.48;3.95;;;16.20;1.00;;;;;;4833148;29;39207;-78
2023/06/01 16:44:43;;;;;;;9.23;5.78;;;16.30;1.00;;;;;;4821005;29;37257;-79
2023/06/01 16:47:09;;;;;;;8.35;4.75;;;16.30;1.00;;;;;;4821594;29;38270;-78
2023/06/01 16:49:36;;;;;;;10.85;6.65;;;16.10;90.30;;;;;;4818876;29;39583;-79
2023/06/01 16:52:06;;;;;;;12.68;4.70;;;16.10;99.90;;;;;;4831912;29;37273;-81
2023/06/01 16:54:34;;;;;;;6.40;2.92;;;16.00;1.00;;;;;;4834085;29;38317;-79
2023/06/01 16:57:01;;;;;;;5.10;2.72;;;15.90;99.90;;;;;;4805417;29;36738;-77
2023/06/01 16:59:27;;;;;;;6.63;4.10;;;15.80;99.90;;;;;;4824888;29;47731;-79
2023/06/01 17:01:53;;;;;;;7.38;4.35;;;15.80;99.90;;;;;;4810722;29;37323;-79
2023/06/01 17:04:19;;;;;;;9.38;3.13;;;15.80;1.00;;;;;;4815055;29;37833;-79
2023/06/01 17:06:48;;;;;;;13.20;4.85;;;15.70;99.90;;;;;;4818544;29;38060;-79
2023/06/01 17:09:14;;;;;;;13.57;5.00;;;15.40;1.00;;;;;;4830851;29;41975;-80
2023/06/01 17:11:40;;;;;;;9.65;3.75;;;15.30;1.00;;;;;;4824576;29;38793;-78
2023/06/01 17:14:07;;;;;;;11.55;3.67;;;15.40;1.00;;;;;;4810742;29;38169;-78
2023/06/01 17:16:33;;;;;;;9.15;3.97;;;15.40;1.00;;;;;;4827328;29;38720;-78
2023/06/01 17:19:00;;;;;;;8.75;2.75;;;15.40;1.00;;;;;;4829044;29;39976;-78
2023/06/01 17:21:26;;;;;;;6.03;2.78;;;15.40;1.00;;;;;;4813802;29;37384;-77
2023/06/01 17:23:54;;;;;;;10.57;4.18;;;15.50;1.00;;;;;;4827916;29;36717;-78
2023/06/01 17:26:20;;;;;;;5.85;2.85;;;15.50;1.00;;;;;;4823552;29;38674;-77
2023/06/01 17:28:46;;;;;;;8.95;2.72;;;15.30;1.00;;;;;;4820641;29;39065;-77
2023/06/01 17:31:12;;;;;;;10.65;3.40;;;15.30;1.00;;;;;;4814104;29;38314;-77
2023/06/01 17:33:39;;;;;;;10.13;2.97;;;15.30;1.00;;;;;;4815579;29;36990;-77
2023/06/01 17:36:06;;;;;;;7.28;3.03;;;15.20;1.00;;;;;;4840450;29;36887;-78
2023/06/01 17:38:32;;;;;;;6.10;2.50;;;15.20;1.00;;;;;;4833796;29;37519;-78
2023/06/01 17:40:59;;;;;;;8.27;2.75;;;15.20;1.00;;;;;;4821624;29;37982;-78
2023/06/01 17:43:25;;;;;;;7.60;2.47;;;15.10;1.00;;;;;;4837725;29;38894;-79
2023/06/01 17:45:51;;;;;;;8.20;2.65;;;15.00;1.00;;;;;;4828898;29;37062;-79
2023/06/01 17:48:17;;;;;;;7.55;4.22;;;15.00;1.00;;;;;;4830190;29;39087;-78
2023/06/01 17:50:43;;;;;;;9.45;3.60;;;15.00;1.00;;;;;;4843881;29;38403;-77
2023/06/01 17:53:10;;;;;;;7.43;2.78;;;14.90;1.00;;;;;;4823407;29;36656;-76
2023/06/01 17:55:36;;;;;;;19.50;3.70;;;14.80;1.00;;;;;;4832143;29;37512;-77
2023/06/01 17:58:02;;;;;;;6.20;2.60;;;14.80;1.00;;;;;;4820207;29;37866;-77
2023/06/01 18:00:28;;;;;;;6.25;3.53;;;14.80;1.00;;;;;;4823552;29;37146;-77
2023/06/01 18:02:55;;;;;;;10.38;3.35;;;14.80;1.00;;;;;;4817140;29;36707;-77
2023/06/01 18:05:21;;;;;;;6.65;3.45;;;14.80;1.00;;;;;;4820579;29;36156;-78
2023/06/01 18:07:47;;;;;;;8.90;3.70;;;14.80;1.00;;;;;;4823729;29;39891;-78
2023/06/01 18:10:14;;;;;;;12.52;3.95;;;14.80;1.00;;;;;;4832575;29;38184;-77
2023/06/01 18:12:40;;;;;;;6.35;3.33;;;14.80;1.00;;;;;;4803367;29;38378;-78
2023/06/01 18:15:06;;;;;;;13.40;3.60;;;14.80;1.00;;;;;;4819308;29;35556;-77
2023/06/01 18:17:33;;;;;;;7.32;3.28;;;14.70;1.00;;;;;;4816719;29;37627;-78
2023/06/01 18:20:03;;;;;;;6.60;2.80;;;14.70;1.00;;;;;;4833470;29;38191;-79
2023/06/01 18:22:30;;;;;;;9.70;2.97;;;14.60;1.00;;;;;;4805033;29;39484;-78
2023/06/01 18:24:56;;;;;;;8.25;3.60;;;14.60;1.00;;;;;;4817766;29;35765;-78
2023/06/01 18:27:22;;;;;;;11.93;3.72;;;14.50;1.00;;;;;;4815082;29;37435;-78
2023/06/01 18:29:48;;;;;;;10.45;3.67;;;14.40;1.00;;;;;;4829893;29;37628;-81
2023/06/01 18:32:14;;;;;;;9.23;4.00;;;14.20;1.00;;;;;;4824071;29;36786;-77
2023/06/01 18:34:40;;;;;;;7.25;3.70;;;14.40;1.00;;;;;;4821090;29;36307;-78
2023/06/01 18:37:07;;;;;;;7.05;3.53;;;14.20;1.00;;;;;;4817216;29;37847;-78
2023/06/01 18:39:33;;;;;;;9.10;3.45;;;14.20;1.00;;;;;;4837455;29;38334;-79
2023/06/01 18:41:59;;;;;;;7.93;3.40;;;14.10;1.00;;;;;;4820556;29;36955;-78
2023/06/01 18:44:25;;;;;;;9.32;4.32;;;14.10;1.00;;;;;;4817013;29;35880;-77
2023/06/01 18:46:52;;;;;;;6.05;3.75;;;14.10;1.00;;;;;;4819780;29;40355;-78
2023/06/01 18:49:18;;;;;;;10.77;3.97;;;14.10;1.00;;;;;;4829109;29;38750;-81
2023/06/01 18:51:45;;;;;;;9.77;4.10;;;14.00;1.00;;;;;;4813178;29;36785;-79
2023/06/01 18:54:11;;;;;;;8.85;4.00;;;13.90;1.00;;;;;;4818967;29;36683;-79
2023/06/01 18:56:37;;;;;;;10.32;3.72;;;13.90;1.00;;;;;;4813293;29;37221;-78
2023/06/01 18:59:03;;;;;;;8.75;3.92;;;13.80;1.00;;;;;;4821027;29;39724;-77
2023/06/01 19:01:29;;;;;;;10.18;3.60;;;13.80;3.20;;;;;;4807414;29;38970;-78
2023/06/01 19:03:55;;;;;;;10.38;3.83;;;13.80;1.00;;;;;;4824957;29;36759;-79
2023/06/01 19:06:21;;;;;;;8.77;3.35;;;13.80;1.00;;;;;;4815061;29;37575;-79
2023/06/01 19:08:50;;;;;;;10.82;4.00;;;13.80;1.00;;;;;;4813478;29;37943;-77
2023/06/01 19:11:17;;;;;;;6.80;3.33;;;13.80;1.00;;;;;;4820507;29;36746;-79
2023/06/01 19:13:45;;;;;;;8.55;3.15;;;13.80;1.00;;;;;;4811355;29;36967;-77
2023/06/01 19:16:20;;;;;;;6.75;2.67;;;13.80;1.00;;;;;;4822356;29;37595;-78
2023/06/01 19:18:59;;;;;;;7.13;3.30;;;13.70;4.50;;;;;;4824255;29;37447;-79
2023/06/01 19:21:34;;;;;;;8.45;3.30;;;13.70;1.00;;;;;;4841636;29;38152;-78
2023/06/01 19:24:07;;;;;;;8.98;3.97;;;13.70;1.00;;;;;;4832402;29;36927;-79
2023/06/01 19:26:34;;;;;;;6.97;3.22;;;13.60;1.00;;;;;;4831127;29;50241;-78
2023/06/01 19:29:03;;;;;;;11.38;2.92;;;13.50;2.70;;;;;;4840253;29;39521;-78
2023/06/01 19:31:31;;;;;;;6.55;2.90;;;13.50;3.70;;;;;;4829680;29;48087;-78
2023/06/01 19:33:58;;;;;;;3.83;2.58;;;13.50;16.00;;;;;;4816841;29;36314;-78
2023/06/01 19:36:42;;;;;;;5.63;2.10;;;13.60;14.30;;;;;;4815151;29;39420;-78
2023/06/01 19:39:29;;;;;;;5.60;2.30;;;13.50;6.80;;;;;;4821936;29;39476;-78
2023/06/01 19:42:19;;;;;;;6.47;2.88;;;13.40;16.00;;;;;;4803191;29;37920;-79
2023/06/01 19:44:45;;;;;;;6.10;3.10;;;13.40;22.60;;;;;;4822836;29;48189;-80
2023/06/01 19:47:45;;;;;;;7.78;3.20;;;13.40;21.30;;;;;;4819963;29;38396;-79
2023/06/01 19:50:32;;;;;;;5.50;2.83;;;13.40;16.10;;;;;;4784426;29;38510;-79
2023/06/01 19:53:03;;;;;;;6.45;2.53;;;13.30;30.40;;;;;;4811520;29;37152;-79
2023/06/01 19:55:30;;;;;;;7.00;2.55;;;13.40;33.50;;;;;;4807547;29;47109;-80
2023/06/01 19:58:01;;;;;;;4.38;2.35;;;13.50;16.40;;;;;;4840913;29;39021;-80
2023/06/01 20:00:49;;;;;;;5.50;2.20;;;13.40;20.60;;;;;;4835356;29;39500;-82
2023/06/01 20:04:07;;;;;;;8.02;2.67;;;13.50;25.10;;;;;;5018157;23;38376;-79
2023/06/01 20:06:59;;;;;;;9.82;2.00;;;13.50;29.50;;;;;;4804284;29;49985;-81
2023/06/01 20:09:35;;;;;;;8.32;2.22;;;13.40;26.60;;;;;;4757027;29;37581;-80
2023/06/01 20:12:22;;;;;;;3.60;1.95;;;13.50;26.40;;;;;;4789733;29;39103;-81
2023/06/01 20:15:11;;;;;;;5.78;1.90;;;13.40;22.40;;;;;;4820358;29;37853;-80
2023/06/01 20:18:09;;;;;;;5.82;2.20;;;13.40;25.20;;;;;;4754771;29;49378;-80
2023/06/01 20:20:41;;;;;;;6.40;2.70;;;13.20;13.10;;;;;;4819000;29;50630;-82
2023/06/01 20:32:42;;;;;;;3.28;1.67;;;13.30;5.90;;;;;;5215031;23;20046;-80
2023/06/01 20:35:09;;;;;;;5.90;1.58;;;13.20;1.00;;;;;;4804414;29;37635;-80
2023/06/01 20:37:36;;;;;;;6.70;1.75;;;13.20;8.60;;;;;;4827681;29;37881;-78
2023/06/01 20:40:13;;;;;;;4.13;1.90;;;13.20;12.90;;;;;;4798784;29;36313;-78
2023/06/01 20:42:39;;;;;;;3.63;1.98;;;13.20;12.90;;;;;;4812999;29;47397;-79
2023/06/01 20:45:47;;;;;;;4.90;2.17;;;13.20;12.10;;;;;;4824467;29;38025;-82
2023/06/01 20:49:13;;;;;;;;;;;;;;;;;;;;;
2023/06/01 20:58:55;;;;;;;4.72;2.17;;;12.90;17.30;;;;;;4998681;23;20503;-81
2023/06/01 21:01:52;;;;;;;4.78;2.00;;;12.90;1.00;;;;;;4849413;29;38926;-80
2023/06/01 21:04:29;;;;;;;4.28;2.08;;;12.80;1.00;;;;;;4776360;29;38025;-80
2023/06/01 21:07:08;;;;;;;6.78;2.33;;;12.80;1.00;;;;;;4794104;29;39298;-80
2023/06/01 21:09:34;;;;;;;5.75;2.80;;;12.90;1.00;;;;;;4811275;29;49519;-80